sensor_id;sensor_type;location;lat;lon;timestamp;temperature;humidity
16267;DHT22;8241;48.786;9.250;2023-04-04T00:00:41;2.70;92.60
16267;DHT22;8241;48.786;9.250;2023-04-04T00:03:08;2.70;92.70
16267;DHT22;8241;48.786;9.250;2023-04-04T00:05:35;2.70;93.00
16267;DHT22;8241;48.786;9.250;2023-04-04T00:08:02;2.70;92.70
16267;DHT22;8241;48.786;9.250;2023-04-04T00:10:28;2.70;92.40
16267;DHT22;8241;48.786;9.250;2023-04-04T00:12:57;2.60;92.60
16267;DHT22;8241;48.786;9.250;2023-04-04T00:15:23;2.60;92.60
16267;DHT22;8241;48.786;9.250;2023-04-04T00:17:50;2.70;92.60
16267;DHT22;8241;48.786;9.250;2023-04-04T00:20:17;2.70;92.50
16267;DHT22;8241;48.786;9.250;2023-04-04T00:22:44;2.60;92.80
16267;DHT22;8241;48.786;9.250;2023-04-04T00:25:11;2.60;92.70
16267;DHT22;8241;48.786;9.250;2023-04-04T00:27:37;2.50;92.70
16267;DHT22;8241;48.786;9.250;2023-04-04T00:30:07;2.60;92.90
16267;DHT22;8241;48.786;9.250;2023-04-04T00:32:33;2.50;92.60
16267;DHT22;8241;48.786;9.250;2023-04-04T00:35:00;2.50;92.70
16267;DHT22;8241;48.786;9.250;2023-04-04T00:37:27;2.40;92.50
16267;DHT22;8241;48.786;9.250;2023-04-04T00:39:54;2.40;92.40
16267;DHT22;8241;48.786;9.250;2023-04-04T00:42:21;2.40;92.70
16267;DHT22;8241;48.786;9.250;2023-04-04T00:44:48;2.40;92.70
16267;DHT22;8241;48.786;9.250;2023-04-04T00:47:16;2.40;92.80
16267;DHT22;8241;48.786;9.250;2023-04-04T00:49:43;2.30;92.30
16267;DHT22;8241;48.786;9.250;2023-04-04T00:52:10;2.40;92.60
16267;DHT22;8241;48.786;9.250;2023-04-04T00:54:38;2.30;92.70
16267;DHT22;8241;48.786;9.250;2023-04-04T00:57:05;2.30;92.30
16267;DHT22;8241;48.786;9.250;2023-04-04T00:59:32;2.30;92.60
16267;DHT22;8241;48.786;9.250;2023-04-04T01:01:59;2.30;92.70
16267;DHT22;8241;48.786;9.250;2023-04-04T01:04:27;2.30;92.90
16267;DHT22;8241;48.786;9.250;2023-04-04T01:06:54;2.20;92.80
16267;DHT22;8241;48.786;9.250;2023-04-04T01:09:21;2.20;93.00
16267;DHT22;8241;48.786;9.250;2023-04-04T01:11:48;2.10;93.30
16267;DHT22;8241;48.786;9.250;2023-04-04T01:14:16;2.10;93.20
16267;DHT22;8241;48.786;9.250;2023-04-04T01:16:43;2.10;93.10
16267;DHT22;8241;48.786;9.250;2023-04-04T01:19:13;2.10;93.20
16267;DHT22;8241;48.786;9.250;2023-04-04T01:21:43;2.00;93.30
16267;DHT22;8241;48.786;9.250;2023-04-04T01:24:12;2.00;93.40
16267;DHT22;8241;48.786;9.250;2023-04-04T01:27:04;1.90;93.50
16267;DHT22;8241;48.786;9.250;2023-04-04T01:29:33;1.90;93.40
16267;DHT22;8241;48.786;9.250;2023-04-04T01:32:03;1.90;93.70
16267;DHT22;8241;48.786;9.250;2023-04-04T01:34:31;1.90;93.50
16267;DHT22;8241;48.786;9.250;2023-04-04T01:37:02;1.90;93.50
16267;DHT22;8241;48.786;9.250;2023-04-04T01:39:34;1.90;93.70
16267;DHT22;8241;48.786;9.250;2023-04-04T01:42:04;1.90;93.80
16267;DHT22;8241;48.786;9.250;2023-04-04T01:44:32;1.80;93.90
16267;DHT22;8241;48.786;9.250;2023-04-04T01:47:00;1.80;94.10
16267;DHT22;8241;48.786;9.250;2023-04-04T01:49:27;1.70;94.20
16267;DHT22;8241;48.786;9.250;2023-04-04T01:51:54;1.70;94.20
16267;DHT22;8241;48.786;9.250;2023-04-04T01:54:21;1.60;94.50
16267;DHT22;8241;48.786;9.250;2023-04-04T01:56:48;1.60;94.90
16267;DHT22;8241;48.786;9.250;2023-04-04T01:59:17;1.50;94.70
16267;DHT22;8241;48.786;9.250;2023-04-04T02:01:44;1.40;95.00
16267;DHT22;8241;48.786;9.250;2023-04-04T02:04:12;1.40;95.10
16267;DHT22;8241;48.786;9.250;2023-04-04T02:06:46;1.30;95.30
16267;DHT22;8241;48.786;9.250;2023-04-04T02:09:12;1.30;95.50
16267;DHT22;8241;48.786;9.250;2023-04-04T02:11:40;1.20;95.60
16267;DHT22;8241;48.786;9.250;2023-04-04T02:14:07;1.20;95.80
16267;DHT22;8241;48.786;9.250;2023-04-04T02:16:35;1.20;95.90
16267;DHT22;8241;48.786;9.250;2023-04-04T02:19:03;1.20;95.90
16267;DHT22;8241;48.786;9.250;2023-04-04T02:21:35;1.10;96.00
16267;DHT22;8241;48.786;9.250;2023-04-04T02:24:02;1.10;96.00
16267;DHT22;8241;48.786;9.250;2023-04-04T02:26:29;1.00;96.30
16267;DHT22;8241;48.786;9.250;2023-04-04T02:28:57;1.00;96.60
16267;DHT22;8241;48.786;9.250;2023-04-04T02:31:24;1.00;96.70
16267;DHT22;8241;48.786;9.250;2023-04-04T02:33:52;0.90;96.80
16267;DHT22;8241;48.786;9.250;2023-04-04T02:36:20;0.90;96.90
16267;DHT22;8241;48.786;9.250;2023-04-04T02:38:49;0.90;97.10
16267;DHT22;8241;48.786;9.250;2023-04-04T02:41:16;0.90;97.10
16267;DHT22;8241;48.786;9.250;2023-04-04T02:43:45;0.90;96.80
16267;DHT22;8241;48.786;9.250;2023-04-04T02:46:12;0.90;97.00
16267;DHT22;8241;48.786;9.250;2023-04-04T02:48:39;0.80;96.90
16267;DHT22;8241;48.786;9.250;2023-04-04T02:51:07;0.80;97.10
16267;DHT22;8241;48.786;9.250;2023-04-04T02:53:34;0.90;97.10
16267;DHT22;8241;48.786;9.250;2023-04-04T02:56:13;0.90;97.00
16267;DHT22;8241;48.786;9.250;2023-04-04T02:58:39;0.90;97.10
16267;DHT22;8241;48.786;9.250;2023-04-04T03:01:06;0.90;97.10
16267;DHT22;8241;48.786;9.250;2023-04-04T03:03:36;0.80;97.20
16267;DHT22;8241;48.786;9.250;2023-04-04T03:06:03;0.90;97.40
16267;DHT22;8241;48.786;9.250;2023-04-04T03:08:31;0.80;97.30
16267;DHT22;8241;48.786;9.250;2023-04-04T03:10:59;0.80;97.50
16267;DHT22;8241;48.786;9.250;2023-04-04T03:13:27;0.80;97.30
16267;DHT22;8241;48.786;9.250;2023-04-04T03:15:57;0.70;97.20
16267;DHT22;8241;48.786;9.250;2023-04-04T03:18:26;0.70;97.50
16267;DHT22;8241;48.786;9.250;2023-04-04T03:20:52;0.60;97.80
16267;DHT22;8241;48.786;9.250;2023-04-04T03:23:19;0.60;98.10
16267;DHT22;8241;48.786;9.250;2023-04-04T03:25:48;0.50;98.40
16267;DHT22;8241;48.786;9.250;2023-04-04T03:28:15;0.50;98.70
16267;DHT22;8241;48.786;9.250;2023-04-04T03:30:43;0.50;98.90
16267;DHT22;8241;48.786;9.250;2023-04-04T03:33:10;0.50;98.90
16267;DHT22;8241;48.786;9.250;2023-04-04T03:35:37;0.50;99.20
16267;DHT22;8241;48.786;9.250;2023-04-04T03:38:05;0.50;99.00
16267;DHT22;8241;48.786;9.250;2023-04-04T03:40:31;0.50;99.10
16267;DHT22;8241;48.786;9.250;2023-04-04T03:43:00;0.50;99.40
16267;DHT22;8241;48.786;9.250;2023-04-04T03:45:27;0.40;99.50
16267;DHT22;8241;48.786;9.250;2023-04-04T03:47:54;0.40;99.90
16267;DHT22;8241;48.786;9.250;2023-04-04T03:50:21;0.40;99.40
16267;DHT22;8241;48.786;9.250;2023-04-04T03:52:51;0.40;99.20
16267;DHT22;8241;48.786;9.250;2023-04-04T03:55:18;0.40;99.50
16267;DHT22;8241;48.786;9.250;2023-04-04T03:57:44;0.40;99.50
16267;DHT22;8241;48.786;9.250;2023-04-04T04:00:15;0.40;99.30
16267;DHT22;8241;48.786;9.250;2023-04-04T04:02:43;0.40;99.50
16267;DHT22;8241;48.786;9.250;2023-04-04T04:05:10;0.40;99.40
16267;DHT22;8241;48.786;9.250;2023-04-04T04:07:37;0.40;99.10
16267;DHT22;8241;48.786;9.250;2023-04-04T04:10:04;0.40;98.70
16267;DHT22;8241;48.786;9.250;2023-04-04T04:12:31;0.40;99.00
16267;DHT22;8241;48.786;9.250;2023-04-04T04:14:58;0.40;98.10
16267;DHT22;8241;48.786;9.250;2023-04-04T04:17:26;0.50;98.10
16267;DHT22;8241;48.786;9.250;2023-04-04T04:19:53;0.40;97.50
16267;DHT22;8241;48.786;9.250;2023-04-04T04:22:21;0.50;97.80
16267;DHT22;8241;48.786;9.250;2023-04-04T04:24:49;0.50;97.30
16267;DHT22;8241;48.786;9.250;2023-04-04T04:27:17;0.50;97.10
16267;DHT22;8241;48.786;9.250;2023-04-04T04:29:44;0.50;97.10
16267;DHT22;8241;48.786;9.250;2023-04-04T04:32:14;0.60;96.80
16267;DHT22;8241;48.786;9.250;2023-04-04T04:34:46;0.50;96.50
16267;DHT22;8241;48.786;9.250;2023-04-04T04:37:15;0.60;96.40
16267;DHT22;8241;48.786;9.250;2023-04-04T04:39:47;0.60;96.20
16267;DHT22;8241;48.786;9.250;2023-04-04T04:42:34;0.60;96.30
16267;DHT22;8241;48.786;9.250;2023-04-04T04:45:02;0.70;96.10
16267;DHT22;8241;48.786;9.250;2023-04-04T04:47:32;0.70;95.80
16267;DHT22;8241;48.786;9.250;2023-04-04T04:50:05;0.70;95.30
16267;DHT22;8241;48.786;9.250;2023-04-04T04:52:36;0.70;95.70
16267;DHT22;8241;48.786;9.250;2023-04-04T04:55:03;0.70;95.50
16267;DHT22;8241;48.786;9.250;2023-04-04T04:57:32;0.80;95.50
16267;DHT22;8241;48.786;9.250;2023-04-04T05:00:02;0.80;95.20
16267;DHT22;8241;48.786;9.250;2023-04-04T05:02:29;0.80;94.80
16267;DHT22;8241;48.786;9.250;2023-04-04T05:04:56;0.80;95.50
16267;DHT22;8241;48.786;9.250;2023-04-04T05:07:25;0.80;95.50
16267;DHT22;8241;48.786;9.250;2023-04-04T05:09:53;0.80;95.30
16267;DHT22;8241;48.786;9.250;2023-04-04T05:12:21;0.80;95.30
16267;DHT22;8241;48.786;9.250;2023-04-04T05:14:50;0.80;95.30
16267;DHT22;8241;48.786;9.250;2023-04-04T05:17:17;0.90;95.40
16267;DHT22;8241;48.786;9.250;2023-04-04T05:19:44;0.90;95.30
16267;DHT22;8241;48.786;9.250;2023-04-04T05:22:17;0.90;94.80
16267;DHT22;8241;48.786;9.250;2023-04-04T05:24:50;0.90;94.90
16267;DHT22;8241;48.786;9.250;2023-04-04T05:27:21;0.90;95.10
16267;DHT22;8241;48.786;9.250;2023-04-04T05:29:56;0.80;95.10
16267;DHT22;8241;48.786;9.250;2023-04-04T05:32:28;0.90;95.50
16267;DHT22;8241;48.786;9.250;2023-04-04T05:35:04;0.90;95.30
16267;DHT22;8241;48.786;9.250;2023-04-04T05:37:37;0.90;95.10
16267;DHT22;8241;48.786;9.250;2023-04-04T05:40:05;0.90;94.90
16267;DHT22;8241;48.786;9.250;2023-04-04T05:42:33;0.90;94.80
16267;DHT22;8241;48.786;9.250;2023-04-04T05:45:00;1.00;94.90
16267;DHT22;8241;48.786;9.250;2023-04-04T05:47:30;1.00;94.70
16267;DHT22;8241;48.786;9.250;2023-04-04T05:49:56;0.90;94.40
16267;DHT22;8241;48.786;9.250;2023-04-04T05:52:23;1.00;94.50
16267;DHT22;8241;48.786;9.250;2023-04-04T05:54:50;1.00;94.50
16267;DHT22;8241;48.786;9.250;2023-04-04T05:57:26;1.00;94.30
16267;DHT22;8241;48.786;9.250;2023-04-04T05:59:55;1.00;94.00
16267;DHT22;8241;48.786;9.250;2023-04-04T06:02:22;1.10;94.40
16267;DHT22;8241;48.786;9.250;2023-04-04T06:04:53;1.10;94.30
16267;DHT22;8241;48.786;9.250;2023-04-04T06:07:32;1.10;93.90
16267;DHT22;8241;48.786;9.250;2023-04-04T06:10:00;1.10;93.60
16267;DHT22;8241;48.786;9.250;2023-04-04T06:12:29;1.10;93.90
16267;DHT22;8241;48.786;9.250;2023-04-04T06:14:56;1.20;93.80
16267;DHT22;8241;48.786;9.250;2023-04-04T06:17:23;1.20;93.80
16267;DHT22;8241;48.786;9.250;2023-04-04T06:19:51;1.20;93.60
16267;DHT22;8241;48.786;9.250;2023-04-04T06:22:21;1.20;93.40
16267;DHT22;8241;48.786;9.250;2023-04-04T06:24:50;1.30;93.50
16267;DHT22;8241;48.786;9.250;2023-04-04T06:27:17;1.30;93.60
16267;DHT22;8241;48.786;9.250;2023-04-04T06:29:47;1.30;93.60
16267;DHT22;8241;48.786;9.250;2023-04-04T06:32:18;1.30;93.40
16267;DHT22;8241;48.786;9.250;2023-04-04T06:34:46;1.30;93.10
16267;DHT22;8241;48.786;9.250;2023-04-04T06:37:16;1.30;93.10
16267;DHT22;8241;48.786;9.250;2023-04-04T06:39:52;1.40;93.30
16267;DHT22;8241;48.786;9.250;2023-04-04T06:42:23;1.70;92.40
16267;DHT22;8241;48.786;9.250;2023-04-04T06:44:52;2.00;92.30
16267;DHT22;8241;48.786;9.250;2023-04-04T06:47:19;2.30;92.10
16267;DHT22;8241;48.786;9.250;2023-04-04T06:49:46;2.70;91.10
16267;DHT22;8241;48.786;9.250;2023-04-04T06:52:13;3.00;90.60
16267;DHT22;8241;48.786;9.250;2023-04-04T06:54:40;3.30;90.00
16267;DHT22;8241;48.786;9.250;2023-04-04T06:57:07;3.50;88.70
16267;DHT22;8241;48.786;9.250;2023-04-04T06:59:34;3.60;88.40
16267;DHT22;8241;48.786;9.250;2023-04-04T07:02:02;3.70;87.60
16267;DHT22;8241;48.786;9.250;2023-04-04T07:04:29;4.00;87.90
16267;DHT22;8241;48.786;9.250;2023-04-04T07:06:59;4.20;87.30
16267;DHT22;8241;48.786;9.250;2023-04-04T07:09:25;4.60;85.80
16267;DHT22;8241;48.786;9.250;2023-04-04T07:11:53;4.80;84.40
16267;DHT22;8241;48.786;9.250;2023-04-04T07:14:20;4.70;83.30
16267;DHT22;8241;48.786;9.250;2023-04-04T07:16:49;4.90;83.90
16267;DHT22;8241;48.786;9.250;2023-04-04T07:19:17;5.40;83.40
16267;DHT22;8241;48.786;9.250;2023-04-04T07:21:44;5.70;82.00
16267;DHT22;8241;48.786;9.250;2023-04-04T07:24:11;6.00;80.20
16267;DHT22;8241;48.786;9.250;2023-04-04T07:26:41;6.20;79.60
16267;DHT22;8241;48.786;9.250;2023-04-04T07:29:07;6.20;79.30
16267;DHT22;8241;48.786;9.250;2023-04-04T07:31:35;6.40;78.50
16267;DHT22;8241;48.786;9.250;2023-04-04T07:34:02;6.60;79.70
16267;DHT22;8241;48.786;9.250;2023-04-04T07:36:30;7.00;77.10
16267;DHT22;8241;48.786;9.250;2023-04-04T07:38:57;7.10;75.90
16267;DHT22;8241;48.786;9.250;2023-04-04T07:41:24;7.00;75.80
16267;DHT22;8241;48.786;9.250;2023-04-04T07:43:51;6.90;77.40
16267;DHT22;8241;48.786;9.250;2023-04-04T07:46:18;7.10;77.00
16267;DHT22;8241;48.786;9.250;2023-04-04T07:48:46;7.50;76.20
16267;DHT22;8241;48.786;9.250;2023-04-04T07:51:13;7.80;75.40
16267;DHT22;8241;48.786;9.250;2023-04-04T07:53:42;7.60;74.00
16267;DHT22;8241;48.786;9.250;2023-04-04T07:56:09;7.80;75.40
16267;DHT22;8241;48.786;9.250;2023-04-04T07:58:36;8.10;73.30
16267;DHT22;8241;48.786;9.250;2023-04-04T08:01:02;8.10;73.60
16267;DHT22;8241;48.786;9.250;2023-04-04T08:03:29;8.30;73.50
16267;DHT22;8241;48.786;9.250;2023-04-04T08:05:56;8.60;73.20
16267;DHT22;8241;48.786;9.250;2023-04-04T08:08:23;8.80;70.70
16267;DHT22;8241;48.786;9.250;2023-04-04T08:10:51;8.70;71.80
16267;DHT22;8241;48.786;9.250;2023-04-04T08:13:18;8.90;72.40
16267;DHT22;8241;48.786;9.250;2023-04-04T08:15:45;9.00;71.20
16267;DHT22;8241;48.786;9.250;2023-04-04T08:18:12;9.30;71.00
16267;DHT22;8241;48.786;9.250;2023-04-04T08:20:38;9.50;70.80
16267;DHT22;8241;48.786;9.250;2023-04-04T08:23:05;9.50;70.20
16267;DHT22;8241;48.786;9.250;2023-04-04T08:25:32;10.00;69.00
16267;DHT22;8241;48.786;9.250;2023-04-04T08:28:01;9.90;67.50
16267;DHT22;8241;48.786;9.250;2023-04-04T08:30:29;9.90;69.50
16267;DHT22;8241;48.786;9.250;2023-04-04T08:32:56;10.10;68.40
16267;DHT22;8241;48.786;9.250;2023-04-04T08:35:22;10.10;68.20
16267;DHT22;8241;48.786;9.250;2023-04-04T08:37:49;10.30;68.50
16267;DHT22;8241;48.786;9.250;2023-04-04T08:40:16;10.40;68.20
16267;DHT22;8241;48.786;9.250;2023-04-04T08:42:43;10.50;66.40
16267;DHT22;8241;48.786;9.250;2023-04-04T08:45:12;10.30;65.60
16267;DHT22;8241;48.786;9.250;2023-04-04T08:47:42;10.20;67.10
16267;DHT22;8241;48.786;9.250;2023-04-04T08:50:09;9.90;67.20
16267;DHT22;8241;48.786;9.250;2023-04-04T08:52:36;10.00;67.30
16267;DHT22;8241;48.786;9.250;2023-04-04T08:55:04;10.30;66.60
16267;DHT22;8241;48.786;9.250;2023-04-04T08:57:31;10.50;66.30
16267;DHT22;8241;48.786;9.250;2023-04-04T08:59:58;10.40;68.30
16267;DHT22;8241;48.786;9.250;2023-04-04T09:02:29;10.40;68.00
16267;DHT22;8241;48.786;9.250;2023-04-04T09:04:59;10.50;66.30
16267;DHT22;8241;48.786;9.250;2023-04-04T09:07:27;10.80;66.50
16267;DHT22;8241;48.786;9.250;2023-04-04T09:09:53;10.90;65.50
16267;DHT22;8241;48.786;9.250;2023-04-04T09:12:21;11.00;64.90
16267;DHT22;8241;48.786;9.250;2023-04-04T09:14:49;11.10;65.00
16267;DHT22;8241;48.786;9.250;2023-04-04T09:17:16;11.30;65.10
16267;DHT22;8241;48.786;9.250;2023-04-04T09:19:45;11.60;63.00
16267;DHT22;8241;48.786;9.250;2023-04-04T09:22:12;11.40;62.30
16267;DHT22;8241;48.786;9.250;2023-04-04T09:24:42;11.60;63.20
16267;DHT22;8241;48.786;9.250;2023-04-04T09:27:09;11.80;63.60
16267;DHT22;8241;48.786;9.250;2023-04-04T09:29:36;11.90;61.40
16267;DHT22;8241;48.786;9.250;2023-04-04T09:32:03;11.80;63.80
16267;DHT22;8241;48.786;9.250;2023-04-04T09:34:32;11.70;61.90
16267;DHT22;8241;48.786;9.250;2023-04-04T09:37:01;11.70;63.00
16267;DHT22;8241;48.786;9.250;2023-04-04T09:39:28;11.50;62.40
16267;DHT22;8241;48.786;9.250;2023-04-04T09:41:56;11.70;62.10
16267;DHT22;8241;48.786;9.250;2023-04-04T09:44:23;11.90;61.70
16267;DHT22;8241;48.786;9.250;2023-04-04T09:46:50;12.00;60.90
16267;DHT22;8241;48.786;9.250;2023-04-04T09:49:18;11.80;61.10
16267;DHT22;8241;48.786;9.250;2023-04-04T09:51:50;12.00;62.10
16267;DHT22;8241;48.786;9.250;2023-04-04T09:54:22;12.20;61.60
16267;DHT22;8241;48.786;9.250;2023-04-04T09:56:49;12.20;62.40
16267;DHT22;8241;48.786;9.250;2023-04-04T09:59:16;12.20;61.80
16267;DHT22;8241;48.786;9.250;2023-04-04T10:01:43;12.30;61.90
16267;DHT22;8241;48.786;9.250;2023-04-04T10:04:11;12.20;61.30
16267;DHT22;8241;48.786;9.250;2023-04-04T10:06:38;12.10;61.90
16267;DHT22;8241;48.786;9.250;2023-04-04T10:09:06;12.00;62.60
16267;DHT22;8241;48.786;9.250;2023-04-04T10:11:34;12.30;62.20
16267;DHT22;8241;48.786;9.250;2023-04-04T10:14:03;12.60;61.70
16267;DHT22;8241;48.786;9.250;2023-04-04T10:16:33;12.50;58.90
16267;DHT22;8241;48.786;9.250;2023-04-04T10:19:01;12.50;59.40
16267;DHT22;8241;48.786;9.250;2023-04-04T10:21:29;12.30;61.60
16267;DHT22;8241;48.786;9.250;2023-04-04T10:23:56;12.10;60.00
16267;DHT22;8241;48.786;9.250;2023-04-04T10:26:24;12.00;62.10
16267;DHT22;8241;48.786;9.250;2023-04-04T10:28:53;12.30;61.40
16267;DHT22;8241;48.786;9.250;2023-04-04T10:31:22;12.00;60.50
16267;DHT22;8241;48.786;9.250;2023-04-04T10:33:51;11.80;59.70
16267;DHT22;8241;48.786;9.250;2023-04-04T10:36:22;11.60;60.80
16267;DHT22;8241;48.786;9.250;2023-04-04T10:38:51;11.50;62.20
16267;DHT22;8241;48.786;9.250;2023-04-04T10:41:20;11.60;62.50
16267;DHT22;8241;48.786;9.250;2023-04-04T10:43:47;11.80;64.10
16267;DHT22;8241;48.786;9.250;2023-04-04T10:46:17;12.20;63.30
16267;DHT22;8241;48.786;9.250;2023-04-04T10:48:45;12.20;60.90
16267;DHT22;8241;48.786;9.250;2023-04-04T10:51:13;12.30;62.00
16267;DHT22;8241;48.786;9.250;2023-04-04T10:53:40;12.20;59.90
16267;DHT22;8241;48.786;9.250;2023-04-04T10:56:07;12.10;61.40
16267;DHT22;8241;48.786;9.250;2023-04-04T10:58:38;11.80;60.80
16267;DHT22;8241;48.786;9.250;2023-04-04T11:01:05;11.60;62.70
16267;DHT22;8241;48.786;9.250;2023-04-04T11:06:16;11.20;62.10
16267;DHT22;8241;48.786;9.250;2023-04-04T11:08:44;11.40;62.80
16267;DHT22;8241;48.786;9.250;2023-04-04T11:11:19;11.50;62.60
16267;DHT22;8241;48.786;9.250;2023-04-04T11:13:57;11.60;63.80
16267;DHT22;8241;48.786;9.250;2023-04-04T11:16:25;11.90;62.10
16267;DHT22;8241;48.786;9.250;2023-04-04T11:18:52;12.00;62.50
16267;DHT22;8241;48.786;9.250;2023-04-04T11:21:26;12.00;61.70
16267;DHT22;8241;48.786;9.250;2023-04-04T11:24:12;11.90;62.40
16267;DHT22;8241;48.786;9.250;2023-04-04T11:26:41;11.80;62.40
16267;DHT22;8241;48.786;9.250;2023-04-04T11:29:11;11.60;62.90
16267;DHT22;8241;48.786;9.250;2023-04-04T11:31:45;11.40;65.80
16267;DHT22;8241;48.786;9.250;2023-04-04T11:34:18;11.40;62.70
16267;DHT22;8241;48.786;9.250;2023-04-04T11:36:56;11.30;63.10
16267;DHT22;8241;48.786;9.250;2023-04-04T11:39:27;11.30;63.40
16267;DHT22;8241;48.786;9.250;2023-04-04T11:41:56;11.20;63.00
16267;DHT22;8241;48.786;9.250;2023-04-04T11:44:23;11.00;63.60
16267;DHT22;8241;48.786;9.250;2023-04-04T11:46:55;10.80;63.90
16267;DHT22;8241;48.786;9.250;2023-04-04T11:49:25;10.60;63.50
16267;DHT22;8241;48.786;9.250;2023-04-04T11:51:55;10.60;63.70
16267;DHT22;8241;48.786;9.250;2023-04-04T11:54:23;10.50;64.40
16267;DHT22;8241;48.786;9.250;2023-04-04T11:56:50;10.30;63.80
16267;DHT22;8241;48.786;9.250;2023-04-04T11:59:18;10.00;65.70
16267;DHT22;8241;48.786;9.250;2023-04-04T12:01:45;9.90;64.10
16267;DHT22;8241;48.786;9.250;2023-04-04T12:04:13;9.80;66.20
16267;DHT22;8241;48.786;9.250;2023-04-04T12:06:41;9.90;65.70
16267;DHT22;8241;48.786;9.250;2023-04-04T12:09:09;9.90;65.40
16267;DHT22;8241;48.786;9.250;2023-04-04T12:11:41;9.90;64.60
16267;DHT22;8241;48.786;9.250;2023-04-04T12:14:14;9.70;63.70
16267;DHT22;8241;48.786;9.250;2023-04-04T12:16:41;9.50;66.20
16267;DHT22;8241;48.786;9.250;2023-04-04T12:19:08;9.40;64.80
16267;DHT22;8241;48.786;9.250;2023-04-04T12:21:35;9.30;67.30
16267;DHT22;8241;48.786;9.250;2023-04-04T12:24:02;9.40;66.50
16267;DHT22;8241;48.786;9.250;2023-04-04T12:26:30;9.50;66.90
16267;DHT22;8241;48.786;9.250;2023-04-04T12:28:57;9.80;66.80
16267;DHT22;8241;48.786;9.250;2023-04-04T12:31:25;10.00;66.80
16267;DHT22;8241;48.786;9.250;2023-04-04T12:33:52;10.20;66.20
16267;DHT22;8241;48.786;9.250;2023-04-04T12:36:19;10.50;67.20
16267;DHT22;8241;48.786;9.250;2023-04-04T12:38:59;10.90;67.00
16267;DHT22;8241;48.786;9.250;2023-04-04T12:41:26;11.30;65.60
16267;DHT22;8241;48.786;9.250;2023-04-04T12:44:00;11.60;64.90
16267;DHT22;8241;48.786;9.250;2023-04-04T12:46:33;11.70;63.20
16267;DHT22;8241;48.786;9.250;2023-04-04T12:49:00;11.70;62.10
16267;DHT22;8241;48.786;9.250;2023-04-04T12:51:32;11.50;61.10
16267;DHT22;8241;48.786;9.250;2023-04-04T12:53:59;11.40;61.70
16267;DHT22;8241;48.786;9.250;2023-04-04T12:56:26;11.40;63.30
16267;DHT22;8241;48.786;9.250;2023-04-04T12:59:00;11.50;63.50
16267;DHT22;8241;48.786;9.250;2023-04-04T13:01:29;11.80;65.30
16267;DHT22;8241;48.786;9.250;2023-04-04T13:03:56;12.10;64.10
16267;DHT22;8241;48.786;9.250;2023-04-04T13:06:23;12.30;63.90
16267;DHT22;8241;48.786;9.250;2023-04-04T13:08:53;12.90;62.90
16267;DHT22;8241;48.786;9.250;2023-04-04T13:11:20;13.30;61.40
16267;DHT22;8241;48.786;9.250;2023-04-04T13:13:47;13.20;61.20
16267;DHT22;8241;48.786;9.250;2023-04-04T13:16:30;13.40;61.70
16267;DHT22;8241;48.786;9.250;2023-04-04T13:18:57;13.70;59.80
16267;DHT22;8241;48.786;9.250;2023-04-04T13:21:24;13.90;59.30
16267;DHT22;8241;48.786;9.250;2023-04-04T13:23:51;14.30;59.20
16267;DHT22;8241;48.786;9.250;2023-04-04T13:26:18;14.50;58.60
16267;DHT22;8241;48.786;9.250;2023-04-04T13:28:45;14.80;57.70
16267;DHT22;8241;48.786;9.250;2023-04-04T13:31:12;14.90;57.70
16267;DHT22;8241;48.786;9.250;2023-04-04T13:33:41;15.00;58.10
16267;DHT22;8241;48.786;9.250;2023-04-04T13:36:08;14.90;56.80
16267;DHT22;8241;48.786;9.250;2023-04-04T13:38:35;15.10;57.40
16267;DHT22;8241;48.786;9.250;2023-04-04T13:41:02;15.10;56.50
16267;DHT22;8241;48.786;9.250;2023-04-04T13:43:29;15.10;56.30
16267;DHT22;8241;48.786;9.250;2023-04-04T13:45:55;15.00;57.00
16267;DHT22;8241;48.786;9.250;2023-04-04T13:48:22;14.80;58.10
16267;DHT22;8241;48.786;9.250;2023-04-04T13:50:50;15.10;57.40
16267;DHT22;8241;48.786;9.250;2023-04-04T13:53:20;15.40;56.90
16267;DHT22;8241;48.786;9.250;2023-04-04T13:55:47;15.60;56.60
16267;DHT22;8241;48.786;9.250;2023-04-04T13:58:14;15.90;56.70
16267;DHT22;8241;48.786;9.250;2023-04-04T14:00:45;16.00;56.50
16267;DHT22;8241;48.786;9.250;2023-04-04T14:03:12;16.10;55.50
16267;DHT22;8241;48.786;9.250;2023-04-04T14:05:39;15.80;55.40
16267;DHT22;8241;48.786;9.250;2023-04-04T14:08:07;15.70;56.40
16267;DHT22;8241;48.786;9.250;2023-04-04T14:10:34;15.60;56.50
16267;DHT22;8241;48.786;9.250;2023-04-04T14:13:01;15.40;57.10
16267;DHT22;8241;48.786;9.250;2023-04-04T14:15:28;15.30;57.00
16267;DHT22;8241;48.786;9.250;2023-04-04T14:17:55;15.30;56.70
16267;DHT22;8241;48.786;9.250;2023-04-04T14:20:22;15.40;56.70
16267;DHT22;8241;48.786;9.250;2023-04-04T14:22:49;15.70;57.30
16267;DHT22;8241;48.786;9.250;2023-04-04T14:25:19;16.00;56.40
16267;DHT22;8241;48.786;9.250;2023-04-04T14:27:47;15.80;55.40
16267;DHT22;8241;48.786;9.250;2023-04-04T14:30:16;15.50;55.80
16267;DHT22;8241;48.786;9.250;2023-04-04T14:32:43;15.00;56.10
16267;DHT22;8241;48.786;9.250;2023-04-04T14:35:10;14.70;56.60
16267;DHT22;8241;48.786;9.250;2023-04-04T14:37:38;14.30;56.50
16267;DHT22;8241;48.786;9.250;2023-04-04T14:40:07;14.10;58.10
16267;DHT22;8241;48.786;9.250;2023-04-04T14:42:36;14.30;57.60
16267;DHT22;8241;48.786;9.250;2023-04-04T14:45:03;14.30;56.60
16267;DHT22;8241;48.786;9.250;2023-04-04T14:47:32;13.90;57.10
16267;DHT22;8241;48.786;9.250;2023-04-04T14:50:00;13.60;58.10
16267;DHT22;8241;48.786;9.250;2023-04-04T14:52:27;13.30;58.40
16267;DHT22;8241;48.786;9.250;2023-04-04T14:54:55;13.40;59.10
16267;DHT22;8241;48.786;9.250;2023-04-04T14:57:23;13.60;59.00
16267;DHT22;8241;48.786;9.250;2023-04-04T14:59:55;13.80;59.20
16267;DHT22;8241;48.786;9.250;2023-04-04T15:02:23;13.90;58.80
16267;DHT22;8241;48.786;9.250;2023-04-04T15:04:50;13.90;59.20
16267;DHT22;8241;48.786;9.250;2023-04-04T15:07:17;14.00;58.70
16267;DHT22;8241;48.786;9.250;2023-04-04T15:09:45;14.10;59.10
16267;DHT22;8241;48.786;9.250;2023-04-04T15:12:11;14.30;58.70
16267;DHT22;8241;48.786;9.250;2023-04-04T15:14:38;14.10;56.70
16267;DHT22;8241;48.786;9.250;2023-04-04T15:17:07;13.50;57.60
16267;DHT22;8241;48.786;9.250;2023-04-04T15:19:34;13.20;59.10
16267;DHT22;8241;48.786;9.250;2023-04-04T15:22:01;12.70;59.30
16267;DHT22;8241;48.786;9.250;2023-04-04T15:24:29;12.20;60.30
16267;DHT22;8241;48.786;9.250;2023-04-04T15:26:56;11.90;61.70
16267;DHT22;8241;48.786;9.250;2023-04-04T15:29:22;11.80;62.60
16267;DHT22;8241;48.786;9.250;2023-04-04T15:31:51;11.70;60.80
16267;DHT22;8241;48.786;9.250;2023-04-04T15:34:19;11.60;61.10
16267;DHT22;8241;48.786;9.250;2023-04-04T15:36:46;11.50;61.20
16267;DHT22;8241;48.786;9.250;2023-04-04T15:39:17;11.30;62.70
16267;DHT22;8241;48.786;9.250;2023-04-04T15:41:45;11.20;65.60
16267;DHT22;8241;48.786;9.250;2023-04-04T15:44:12;11.20;65.40
16267;DHT22;8241;48.786;9.250;2023-04-04T15:46:39;11.10;66.10
16267;DHT22;8241;48.786;9.250;2023-04-04T15:49:08;11.00;65.50
16267;DHT22;8241;48.786;9.250;2023-04-04T15:51:36;10.90;65.00
16267;DHT22;8241;48.786;9.250;2023-04-04T15:54:04;10.80;66.10
16267;DHT22;8241;48.786;9.250;2023-04-04T15:56:31;10.60;65.20
16267;DHT22;8241;48.786;9.250;2023-04-04T15:58:58;10.50;66.80
16267;DHT22;8241;48.786;9.250;2023-04-04T16:01:25;10.50;66.90
16267;DHT22;8241;48.786;9.250;2023-04-04T16:03:52;10.50;68.30